Time;durP1;ratioP1;P1;durP2;ratioP2;P2;SDS_P1;SDS_P2;PMS_P1;PMS_P2;Temp;Humidity;BMP_temperature;BMP_pressure;BME280_temperature;BME280_humidity;BME280_pressure;Samples;Min_cycle;Max_cycle;Signal;HPM_P1;HPM_P2
2023/06/18 00:01:57;;;;;;;5.05;2.78;;;;;;;22.59;47.09;101346.19;4996281;28;99604;-27
2023/06/18 00:04:22;;;;;;;4.15;2.40;;;;;;;22.56;46.95;101354.78;4994776;28;96602;-27
2023/06/18 00:06:48;;;;;;;4.65;2.88;;;;;;;22.56;47.11;101357.56;4996361;28;96631;-28
2023/06/18 00:09:13;;;;;;;4.85;3.00;;;;;;;22.50;46.79;101360.94;4996344;28;97551;-27
2023/06/18 00:11:39;;;;;;;4.63;2.70;;;;;;;22.45;47.16;101342.09;4996031;28;97971;-27
2023/06/18 00:14:04;;;;;;;5.53;2.75;;;;;;;22.47;47.36;101346.41;4996576;28;96576;-28
2023/06/18 00:16:30;;;;;;;3.95;2.80;;;;;;;22.38;46.90;101336.38;4996575;28;96804;-28
2023/06/18 00:18:55;;;;;;;3.97;2.70;;;;;;;22.40;47.03;101338.94;4996161;28;97935;-27
2023/06/18 00:21:21;;;;;;;4.85;2.65;;;;;;;22.38;47.28;101335.47;4996146;28;99415;-27
2023/06/18 00:23:46;;;;;;;4.85;2.67;;;;;;;22.41;47.30;101344.31;4996147;28;96483;-27
2023/06/18 00:26:11;;;;;;;6.45;2.92;;;;;;;22.40;46.96;101334.28;4995793;28;96813;-28
2023/06/18 00:28:36;;;;;;;5.10;2.90;;;;;;;22.39;47.07;101338.09;4995418;28;98672;-27
2023/06/18 00:31:02;;;;;;;5.22;2.58;;;;;;;22.36;46.94;101340.31;4994536;28;102723;-28
2023/06/18 00:33:27;;;;;;;2.95;2.20;;;;;;;22.33;47.49;101335.94;4996222;28;96637;-27
2023/06/18 00:35:56;;;;;;;4.13;2.67;;;;;;;22.29;47.32;101329.03;4995721;28;97064;-27
2023/06/18 00:38:23;;;;;;;4.70;2.35;;;;;;;22.31;47.15;101332.50;4996027;28;96787;-27
2023/06/18 00:40:49;;;;;;;5.40;3.00;;;;;;;22.26;47.02;101333.00;4994234;28;100950;-27
2023/06/18 00:43:14;;;;;;;4.35;2.53;;;;;;;22.22;47.63;101330.69;4994724;28;96537;-27
2023/06/18 00:45:39;;;;;;;4.28;2.60;;;;;;;22.19;47.32;101319.91;4994588;28;99084;-27
2023/06/18 00:48:05;;;;;;;5.03;2.83;;;;;;;22.15;47.14;101330.44;4995532;28;99791;-27
2023/06/18 00:50:32;;;;;;;4.25;2.47;;;;;;;22.14;47.09;101325.91;4995038;28;98651;-27
2023/06/18 00:52:59;;;;;;;4.72;2.88;;;;;;;22.15;46.79;101324.91;4993826;28;96657;-28
2023/06/18 00:55:28;;;;;;;4.55;3.03;;;;;;;22.13;46.72;101324.19;4994237;28;96981;-30
2023/06/18 00:57:59;;;;;;;3.97;2.28;;;;;;;22.10;47.21;101324.53;4994160;28;100828;-27
2023/06/18 01:00:28;;;;;;;6.15;2.85;;;;;;;22.07;47.16;101316.53;4995676;28;97987;-27
2023/06/18 01:02:55;;;;;;;4.53;2.83;;;;;;;22.01;47.42;101307.00;4995615;28;96631;-27
2023/06/18 01:05:23;;;;;;;3.65;2.53;;;;;;;21.98;47.15;101312.84;4995664;28;96770;-28
2023/06/18 01:07:49;;;;;;;4.40;2.53;;;;;;;21.95;47.31;101306.78;4993894;28;101244;-27
2023/06/18 01:10:15;;;;;;;3.85;2.50;;;;;;;21.93;47.51;101301.44;4995727;28;97311;-28
2023/06/18 01:12:48;;;;;;;5.25;2.97;;;;;;;21.96;47.99;101305.75;4994174;28;96603;-27
2023/06/18 01:15:17;;;;;;;4.35;2.83;;;;;;;21.88;47.21;101301.03;4994017;28;96729;-27
2023/06/18 01:17:47;;;;;;;5.32;3.05;;;;;;;21.84;47.86;101300.47;4993313;28;101467;-27
2023/06/18 01:20:15;;;;;;;6.82;2.88;;;;;;;21.81;48.00;101292.53;4995048;28;100361;-27
2023/06/18 01:22:52;;;;;;;3.45;2.47;;;;;;;21.88;47.92;101303.81;4993913;28;96607;-27
2023/06/18 01:25:19;;;;;;;3.97;2.63;;;;;;;21.86;47.60;101308.59;4995561;28;96845;-27
2023/06/18 01:27:47;;;;;;;4.32;2.95;;;;;;;21.83;47.57;101297.84;4993547;28;101030;-27
2023/06/18 01:30:13;;;;;;;4.00;2.60;;;;;;;21.80;47.41;101296.28;4993562;28;99530;-27
2023/06/18 01:32:39;;;;;;;5.40;2.75;;;;;;;21.78;47.92;101297.47;4993905;28;96833;-27
2023/06/18 01:35:08;;;;;;;5.18;3.03;;;;;;;21.74;47.92;101293.31;4993216;28;97687;-28
2023/06/18 01:37:44;;;;;;;4.60;2.90;;;;;;;21.73;48.28;101300.69;4994808;28;97956;-27
2023/06/18 01:40:29;;;;;;;4.90;2.75;;;;;;;21.67;48.27;101290.31;4993410;28;101000;-27
2023/06/18 01:43:11;;;;;;;3.97;2.60;;;;;;;21.68;47.91;101303.06;4994609;28;97190;-27
2023/06/18 01:45:46;;;;;;;4.03;2.55;;;;;;;21.63;48.55;101292.50;4993751;28;96807;-28
2023/06/18 01:48:13;;;;;;;3.85;2.63;;;;;;;21.62;48.40;101292.66;4994767;28;99331;-28
2023/06/18 01:50:42;;;;;;;4.47;2.83;;;;;;;21.50;48.85;101283.75;4994811;28;97888;-28
2023/06/18 01:53:08;;;;;;;6.32;3.13;;;;;;;21.51;48.74;101276.34;4993644;28;96614;-27
2023/06/18 01:55:37;;;;;;;4.93;2.83;;;;;;;21.56;48.38;101277.59;4993483;28;96936;-27
2023/06/18 01:58:03;;;;;;;4.68;3.30;;;;;;;21.44;48.83;101264.19;4992815;28;101211;-27
2023/06/18 02:00:28;;;;;;;4.97;2.92;;;;;;;21.52;48.41;101278.91;4993517;28;97803;-27
2023/06/18 02:02:54;;;;;;;6.45;2.83;;;;;;;21.45;49.09;101268.69;4994011;28;96733;-27
2023/06/18 02:05:19;;;;;;;3.78;2.63;;;;;;;21.35;49.46;101255.78;4995083;28;96806;-27
2023/06/18 02:07:44;;;;;;;5.18;2.95;;;;;;;21.34;49.00;101261.47;4994139;28;97923;-27
2023/06/18 02:10:10;;;;;;;4.82;3.17;;;;;;;21.30;49.24;101265.56;4994321;28;99076;-27
2023/06/18 02:12:35;;;;;;;5.20;3.28;;;;;;;21.30;50.21;101268.31;4994706;28;96837;-27
2023/06/18 02:15:01;;;;;;;6.30;3.00;;;;;;;21.28;49.77;101256.56;4994180;28;97900;-27
2023/06/18 02:17:28;;;;;;;5.22;3.40;;;;;;;21.30;49.85;101262.81;4994499;28;97900;-27
2023/06/18 02:19:53;;;;;;;4.85;3.30;;;;;;;21.25;49.18;101251.38;4994359;28;97813;-27
2023/06/18 02:22:19;;;;;;;5.75;2.92;;;;;;;21.32;50.16;101260.75;4994667;28;96712;-27
2023/06/18 02:24:45;;;;;;;4.28;2.97;;;;;;;21.30;49.63;101262.81;4993549;28;96865;-27
2023/06/18 02:27:11;;;;;;;5.55;3.10;;;;;;;21.20;49.31;101254.59;4993795;28;99285;-28
2023/06/18 02:29:36;;;;;;;6.07;3.17;;;;;;;21.20;49.04;101257.34;4994248;28;97286;-28
2023/06/18 02:32:02;;;;;;;5.05;3.05;;;;;;;21.21;49.56;101257.19;4994080;28;96772;-27
2023/06/18 02:34:28;;;;;;;6.05;3.42;;;;;;;21.24;50.63;101263.41;4993681;28;96843;-27
2023/06/18 02:36:56;;;;;;;5.20;3.22;;;;;;;21.12;49.95;101247.09;4992668;28;101114;-29
2023/06/18 02:39:22;;;;;;;6.15;3.58;;;;;;;21.16;49.95;101255.91;4992787;28;101304;-27
2023/06/18 02:41:47;;;;;;;5.82;3.15;;;;;;;21.12;49.93;101260.88;4994483;28;96718;-27
2023/06/18 02:44:12;;;;;;;6.60;3.53;;;;;;;21.10;50.18;101260.16;4994457;28;96820;-28
2023/06/18 02:46:38;;;;;;;5.63;3.03;;;;;;;21.05;49.89;101262.50;4994066;28;97957;-27
2023/06/18 02:49:03;;;;;;;4.80;3.38;;;;;;;21.00;49.87;101254.69;4994353;28;97724;-27
2023/06/18 02:51:29;;;;;;;4.45;3.20;;;;;;;21.05;49.56;101275.41;4994365;28;96736;-28
2023/06/18 02:53:54;;;;;;;4.85;3.08;;;;;;;20.96;50.09;101255.16;4994111;28;96616;-27
2023/06/18 02:56:19;;;;;;;6.97;3.15;;;;;;;20.95;50.11;101261.66;4993010;28;104474;-28
2023/06/18 02:58:46;;;;;;;5.50;3.10;;;;;;;20.98;50.11;101261.38;4993910;28;99755;-28
2023/06/18 03:01:12;;;;;;;5.03;3.05;;;;;;;20.95;50.67;101256.16;4994228;28;96644;-27
2023/06/18 03:03:37;;;;;;;5.43;3.22;;;;;;;20.89;50.99;101254.03;4994125;28;96824;-27
2023/06/18 03:06:04;;;;;;;4.95;2.95;;;;;;;20.88;51.17;101263.28;4993881;28;97411;-28
2023/06/18 03:08:29;;;;;;;5.07;3.17;;;;;;;20.83;51.09;101257.38;4993954;28;97825;-27
2023/06/18 03:10:54;;;;;;;6.35;3.40;;;;;;;20.85;51.37;101260.84;4994109;28;96679;-27
2023/06/18 03:13:20;;;;;;;7.05;3.33;;;;;;;20.81;50.86;101251.16;4994478;28;97177;-27
2023/06/18 03:15:45;;;;;;;6.57;3.97;;;;;;;20.77;51.27;101258.88;4996844;28;97787;-28
2023/06/18 03:18:11;;;;;;;7.55;4.30;;;;;;;20.79;51.17;101265.09;4996994;28;103110;-27
2023/06/18 03:20:36;;;;;;;7.15;3.13;;;;;;;20.71;51.68;101257.59;4996906;28;96548;-27
2023/06/18 03:23:01;;;;;;;5.70;3.92;;;;;;;20.69;51.23;101255.97;4997463;28;96719;-28
2023/06/18 03:25:26;;;;;;;7.10;3.72;;;;;;;20.64;51.18;101263.81;4996919;28;97529;-27
2023/06/18 03:27:52;;;;;;;7.43;3.90;;;;;;;20.63;52.55;101254.69;4996519;28;108125;-27
2023/06/18 03:30:18;;;;;;;4.68;3.30;;;;;;;20.63;52.76;101270.34;4997317;28;96670;-28
2023/06/18 03:32:43;;;;;;;6.22;3.55;;;;;;;20.54;51.86;101261.94;4995769;28;97251;-28
2023/06/18 03:35:09;;;;;;;5.85;3.33;;;;;;;20.55;51.99;101260.97;4995505;28;108023;-27
2023/06/18 03:37:36;;;;;;;7.50;3.80;;;;;;;20.50;52.43;101251.41;4995638;28;101113;-27
2023/06/18 03:40:03;;;;;;;7.97;3.55;;;;;;;20.53;52.89;101257.44;4995372;28;96737;-27
2023/06/18 03:42:28;;;;;;;10.98;3.78;;;;;;;20.48;52.42;101245.16;4995644;28;96812;-27
2023/06/18 03:44:54;;;;;;;5.50;3.78;;;;;;;20.50;52.94;101257.75;4996377;28;97696;-27
2023/06/18 03:47:19;;;;;;;9.10;4.32;;;;;;;20.51;52.93;101262.22;4996678;28;106252;-27
2023/06/18 03:49:45;;;;;;;6.53;4.30;;;;;;;20.51;52.62;101258.63;4997094;28;96611;-27
2023/06/18 03:52:10;;;;;;;6.78;3.90;;;;;;;20.46;53.72;101258.22;4997011;28;96800;-28
2023/06/18 03:54:35;;;;;;;7.82;3.50;;;;;;;20.44;53.30;101261.09;4995757;28;113749;-28
2023/06/18 03:57:01;;;;;;;9.40;3.90;;;;;;;20.41;52.99;101257.78;4996654;28;97805;-27
2023/06/18 03:59:27;;;;;;;6.95;3.90;;;;;;;20.39;52.87;101254.31;4996961;28;96701;-28
2023/06/18 04:01:52;;;;;;;6.22;3.95;;;;;;;20.41;53.38;101257.78;4997071;28;96845;-28
2023/06/18 04:04:17;;;;;;;6.00;3.67;;;;;;;20.37;54.29;101266.31;4996220;28;99254;-27
2023/06/18 04:06:43;;;;;;;4.88;3.45;;;;;;;20.39;53.84;101271.69;4996496;28;97400;-27
2023/06/18 04:09:08;;;;;;;6.15;4.00;;;;;;;20.36;53.62;101269.25;4995908;28;96712;-27
2023/06/18 04:11:38;;;;;;;5.85;3.60;;;;;;;20.34;55.09;101265.75;4996304;28;96740;-29
2023/06/18 04:14:04;;;;;;;7.82;3.85;;;;;;;20.33;54.12;101267.66;4994756;28;101879;-28
2023/06/18 04:16:30;;;;;;;8.18;4.03;;;;;;;20.32;54.57;101274.16;4996560;28;97287;-27
2023/06/18 04:18:55;;;;;;;8.57;4.07;;;;;;;20.35;54.12;101273.00;4996638;28;96990;-27
2023/06/18 04:21:20;;;;;;;7.32;4.07;;;;;;;20.37;54.32;101277.31;4996487;28;96799;-27
2023/06/18 04:23:46;;;;;;;8.90;4.13;;;;;;;20.36;54.14;101275.59;4995475;28;109184;-28
2023/06/18 04:26:11;;;;;;;7.28;4.15;;;;;;;20.31;54.24;101272.44;4995341;28;106526;-27
2023/06/18 04:28:36;;;;;;;7.78;4.40;;;;;;;20.31;53.98;101271.56;4996105;28;96730;-27
2023/06/18 04:31:02;;;;;;;11.73;3.90;;;;;;;20.32;54.71;101270.53;4996379;28;96689;-27
2023/06/18 04:33:27;;;;;;;8.15;4.35;;;;;;;20.31;54.46;101272.44;4995274;28;99339;-27
2023/06/18 04:35:52;;;;;;;8.25;4.40;;;;;;;20.32;54.69;101274.16;4995271;28;97764;-29
2023/06/18 04:38:18;;;;;;;8.32;3.85;;;;;;;20.32;54.85;101273.28;4996432;28;96621;-27
2023/06/18 04:40:43;;;;;;;8.57;4.22;;;;;;;20.37;54.73;101280.06;4996004;28;96456;-27
2023/06/18 04:43:08;;;;;;;6.63;3.97;;;;;;;20.32;54.51;101274.16;4995402;28;111613;-27
2023/06/18 04:45:34;;;;;;;6.22;3.90;;;;;;;20.35;54.15;101279.38;4995860;28;97874;-27
2023/06/18 04:47:59;;;;;;;5.85;3.72;;;;;;;20.44;55.05;101293.25;4995909;28;96501;-27
2023/06/18 04:50:25;;;;;;;11.60;4.38;;;;;;;20.44;54.27;101285.00;4996378;28;96772;-27
2023/06/18 04:52:50;;;;;;;10.27;4.28;;;;;;;20.44;54.15;101280.38;4995045;28;99351;-28
2023/06/18 04:55:16;;;;;;;6.50;3.67;;;;;;;20.46;55.60;101286.59;4995476;28;98195;-28
2023/06/18 04:57:41;;;;;;;9.27;4.15;;;;;;;20.49;55.62;101288.19;4995555;28;96475;-28
2023/06/18 05:00:08;;;;;;;7.90;3.97;;;;;;;20.46;54.91;101286.59;4995834;28;96666;-30
2023/06/18 05:02:34;;;;;;;5.53;4.10;;;;;;;20.45;55.94;101279.38;4993946;28;98972;-27
2023/06/18 05:04:59;;;;;;;7.13;4.15;;;;;;;20.53;54.38;101278.63;4995439;28;97788;-27
2023/06/18 05:07:25;;;;;;;7.18;4.07;;;;;;;20.58;54.96;101279.91;4995765;28;96480;-27
2023/06/18 05:09:50;;;;;;;8.10;4.20;;;;;;;20.64;55.05;101281.22;4995783;28;96789;-27
2023/06/18 05:12:15;;;;;;;7.22;4.40;;;;;;;20.68;55.46;101285.41;4995403;28;97916;-27
2023/06/18 05:14:41;;;;;;;6.93;3.88;;;;;;;20.70;54.75;101277.00;4995700;28;97928;-28
2023/06/18 05:17:06;;;;;;;8.00;4.22;;;;;;;20.77;55.52;101280.88;4995570;28;96451;-27
2023/06/18 05:19:31;;;;;;;7.95;4.32;;;;;;;20.82;54.61;101275.78;4995458;28;96837;-28
2023/06/18 05:21:58;;;;;;;6.88;3.85;;;;;;;20.82;55.12;101274.94;4994502;28;99521;-27
2023/06/18 05:24:23;;;;;;;7.53;4.22;;;;;;;20.88;54.59;101274.31;4994864;28;99162;-27
2023/06/18 05:26:48;;;;;;;6.53;4.07;;;;;;;21.00;55.90;101284.13;4994259;28;96519;-27
2023/06/18 05:29:15;;;;;;;9.52;4.35;;;;;;;21.02;55.00;101287.59;4994790;28;101553;-28
2023/06/18 05:31:41;;;;;;;5.20;3.95;;;;;;;20.99;54.65;101286.00;4993531;28;101179;-27
2023/06/18 05:34:06;;;;;;;7.43;4.28;;;;;;;21.02;54.63;101287.59;4994373;28;99133;-27
2023/06/18 05:36:31;;;;;;;7.25;4.25;;;;;;;20.98;54.73;101287.03;4993862;28;96603;-27
2023/06/18 05:38:59;;;;;;;6.20;3.88;;;;;;;21.07;55.37;101296.28;4995417;28;96971;-27
2023/06/18 05:41:25;;;;;;;6.22;4.07;;;;;;;21.11;54.39;101297.69;4994962;28;97954;-28
2023/06/18 05:43:51;;;;;;;5.95;3.88;;;;;;;21.11;54.22;101294.06;4993309;28;101057;-29
2023/06/18 05:46:16;;;;;;;6.68;3.95;;;;;;;21.12;54.07;101304.97;4994419;28;96592;-28
2023/06/18 05:48:42;;;;;;;7.22;4.25;;;;;;;21.12;54.04;101338.00;4995251;28;96840;-28
2023/06/18 05:51:07;;;;;;;8.20;4.40;;;;;;;21.09;55.06;101368.59;4994351;28;111205;-28
2023/06/18 05:53:32;;;;;;;6.65;3.55;;;;;;;20.98;54.66;101322.84;4994370;28;99409;-28
2023/06/18 05:55:58;;;;;;;5.13;2.88;;;;;;;20.98;54.04;101322.84;4995051;28;96640;-27
2023/06/18 05:58:23;;;;;;;7.30;3.20;;;;;;;21.02;53.84;101341.81;4994968;28;96826;-28
2023/06/18 06:00:48;;;;;;;7.85;3.75;;;;;;;21.00;53.92;101351.09;4994176;28;111264;-29
2023/06/18 06:03:14;;;;;;;5.93;3.28;;;;;;;21.04;53.33;101328.75;4995019;28;97342;-27
2023/06/18 06:05:39;;;;;;;5.88;3.35;;;;;;;21.06;52.66;101324.84;4994628;28;96755;-27
2023/06/18 06:08:06;;;;;;;5.40;3.03;;;;;;;21.09;52.57;101335.53;4994332;28;100455;-27
2023/06/18 06:10:31;;;;;;;5.28;3.38;;;;;;;21.12;52.19;101337.16;4993811;28;99954;-27
2023/06/18 06:12:57;;;;;;;5.47;3.42;;;;;;;21.14;51.82;101330.47;4994653;28;97275;-27
2023/06/18 06:15:22;;;;;;;5.25;3.33;;;;;;;21.16;51.25;101327.53;4993107;28;96789;-27
2023/06/18 06:17:47;;;;;;;5.40;3.08;;;;;;;21.16;51.27;101325.66;4993291;28;96786;-27
2023/06/18 06:20:13;;;;;;;4.63;3.13;;;;;;;21.22;51.40;101326.94;4993759;28;116534;-28
2023/06/18 06:22:39;;;;;;;6.13;2.88;;;;;;;21.17;51.35;101310.00;4992720;28;100846;-27
2023/06/18 06:25:05;;;;;;;4.60;2.97;;;;;;;21.24;51.21;101324.03;4994810;28;96720;-27
2023/06/18 06:27:30;;;;;;;3.80;2.58;;;;;;;21.21;50.75;101312.31;4994931;28;96789;-27
2023/06/18 06:29:55;;;;;;;8.40;3.58;;;;;;;21.23;50.66;101323.16;4993791;28;98729;-27
2023/06/18 06:32:21;;;;;;;5.85;3.25;;;;;;;21.18;50.52;101309.84;4994139;28;99103;-27
2023/06/18 06:34:47;;;;;;;6.55;3.30;;;;;;;21.19;50.58;101313.50;4993424;28;96975;-27
2023/06/18 06:37:13;;;;;;;9.63;3.42;;;;;;;21.17;50.54;101312.75;4992882;28;96808;-27
2023/06/18 06:39:38;;;;;;;6.72;3.65;;;;;;;21.19;50.77;101306.09;4993116;28;98051;-28
2023/06/18 06:42:04;;;;;;;7.50;3.05;;;;;;;21.24;50.70;101310.25;4994123;28;97871;-27
2023/06/18 06:44:30;;;;;;;8.95;3.45;;;;;;;21.28;50.69;101312.53;4992906;28;96743;-28
2023/06/18 06:46:55;;;;;;;6.43;3.28;;;;;;;21.32;50.42;101318.63;4993998;28;104743;-27
2023/06/18 06:49:20;;;;;;;4.88;3.15;;;;;;;21.21;50.49;101304.03;4994874;28;99760;-27
2023/06/18 06:51:47;;;;;;;6.05;3.40;;;;;;;21.32;50.37;101324.16;4996787;28;120781;-27
2023/06/18 06:54:12;;;;;;;5.90;3.30;;;;;;;21.37;50.60;101330.91;4996374;28;96781;-27
2023/06/18 06:56:37;;;;;;;6.38;3.42;;;;;;;21.42;50.93;101322.22;4997705;28;96504;-27
2023/06/18 06:59:03;;;;;;;5.75;3.35;;;;;;;21.43;50.46;101323.97;4996295;28;111113;-27
2023/06/18 07:01:28;;;;;;;4.85;3.03;;;;;;;21.50;50.83;101325.09;4996785;28;116949;-27
2023/06/18 07:03:53;;;;;;;4.03;2.92;;;;;;;21.48;50.55;101324.38;4997270;28;102461;-31
2023/06/18 07:06:19;;;;;;;4.50;3.05;;;;;;;21.59;50.62;101335.19;4997714;28;96755;-28
2023/06/18 07:08:45;;;;;;;5.63;3.38;;;;;;;21.59;50.21;101332.41;4997337;28;97914;-27
2023/06/18 07:11:10;;;;;;;5.28;3.03;;;;;;;21.68;49.98;101336.16;4995682;28;101111;-27
2023/06/18 07:13:36;;;;;;;6.55;3.38;;;;;;;21.67;50.32;101331.66;4997681;28;96601;-27
2023/06/18 07:16:01;;;;;;;6.43;3.65;;;;;;;21.72;49.74;101333.97;4997357;28;102446;-27
2023/06/18 07:18:26;;;;;;;6.00;3.67;;;;;;;21.73;49.34;101339.31;4997085;28;97960;-27
2023/06/18 07:20:52;;;;;;;5.32;3.60;;;;;;;21.80;49.54;101345.94;4996995;28;97341;-27
2023/06/18 07:23:17;;;;;;;6.85;3.90;;;;;;;21.82;49.56;101343.03;4996620;28;96548;-27
2023/06/18 07:25:42;;;;;;;5.95;3.85;;;;;;;21.85;49.39;101345.47;4997165;28;96812;-27
2023/06/18 07:28:08;;;;;;;8.15;2.95;;;;;;;21.81;49.39;101336.66;4996459;28;99271;-27
2023/06/18 07:30:33;;;;;;;6.28;4.03;;;;;;;21.90;49.50;101337.59;4996814;28;98774;-27
2023/06/18 07:32:58;;;;;;;5.53;3.67;;;;;;;21.93;49.13;101344.69;4997440;28;96592;-27
2023/06/18 07:35:24;;;;;;;6.53;3.40;;;;;;;21.95;49.06;101353.66;4996179;28;96752;-28
2023/06/18 07:37:49;;;;;;;5.85;3.42;;;;;;;21.98;49.30;101357.00;4996569;28;98725;-28
2023/06/18 07:40:15;;;;;;;6.43;3.72;;;;;;;22.00;49.36;101334.75;4997112;28;97256;-27
2023/06/18 07:42:41;;;;;;;8.02;3.85;;;;;;;22.14;49.48;101338.84;4995514;28;96608;-27
2023/06/18 07:45:06;;;;;;;6.07;3.35;;;;;;;22.27;49.37;101344.88;4996832;28;96907;-27
2023/06/18 07:47:32;;;;;;;5.90;3.55;;;;;;;22.35;48.95;101335.81;4996060;28;98950;-27
2023/06/18 07:49:59;;;;;;;6.75;4.15;;;;;;;22.40;48.71;101328.75;4996706;28;98399;-27
2023/06/18 07:52:24;;;;;;;5.57;2.97;;;;;;;22.53;49.19;101333.88;4995453;28;96699;-27
2023/06/18 07:54:49;;;;;;;6.13;3.67;;;;;;;22.61;48.76;101341.38;4995068;28;98767;-27
2023/06/18 07:57:15;;;;;;;8.60;4.05;;;;;;;22.76;48.36;101338.88;4995853;28;120921;-28
2023/06/18 07:59:41;;;;;;;7.22;4.05;;;;;;;22.83;48.00;101335.28;4996404;28;99156;-27
2023/06/18 08:02:06;;;;;;;7.45;3.83;;;;;;;22.88;48.39;101330.16;4994814;28;96615;-29
2023/06/18 08:04:32;;;;;;;5.65;3.72;;;;;;;23.01;47.93;101340.81;4996639;28;96901;-27
2023/06/18 08:06:57;;;;;;;5.00;3.33;;;;;;;23.15;48.11;101333.81;4995447;28;105338;-28
2023/06/18 08:09:22;;;;;;;6.63;4.03;;;;;;;23.21;47.82;101332.25;4996262;28;98781;-27
2023/06/18 08:11:48;;;;;;;5.63;3.80;;;;;;;23.16;47.57;101330.00;4996029;28;96436;-27
2023/06/18 08:14:13;;;;;;;5.18;3.25;;;;;;;23.17;47.90;101328.97;4996736;28;96816;-28
2023/06/18 08:16:39;;;;;;;5.20;3.38;;;;;;;23.13;47.97;101322.03;4996294;28;97841;-27
2023/06/18 08:19:04;;;;;;;5.68;3.55;;;;;;;23.24;47.90;101324.53;4994268;28;99338;-31
2023/06/18 08:21:30;;;;;;;6.45;3.38;;;;;;;23.28;47.83;101325.91;4994001;28;96647;-28
2023/06/18 08:23:55;;;;;;;7.15;3.58;;;;;;;23.39;47.89;101332.19;4992331;28;97280;-37
2023/06/18 08:26:22;;;;;;;5.88;3.38;;;;;;;23.38;47.60;101316.59;4991632;28;99247;-31
2023/06/18 08:28:48;;;;;;;4.40;2.85;;;;;;;23.40;47.86;101320.94;4990898;28;100835;-31
2023/06/18 08:31:14;;;;;;;5.47;3.42;;;;;;;23.52;48.16;101318.72;4990656;28;97073;-36
2023/06/18 08:33:39;;;;;;;4.68;3.33;;;;;;;23.52;47.38;101316.81;4991057;28;97247;-29
2023/06/18 08:36:05;;;;;;;5.80;3.53;;;;;;;23.56;47.41;101313.75;4992122;28;107351;-28
2023/06/18 08:38:30;;;;;;;5.00;3.20;;;;;;;23.53;47.81;101309.44;4994740;28;111849;-29
2023/06/18 08:41:00;;;;;;;5.22;3.15;;;;;;;23.56;48.42;101300.78;4995938;28;96612;-27
2023/06/18 08:43:32;;;;;;;5.90;3.38;;;;;;;23.62;47.86;101302.88;4994893;28;96722;-27
2023/06/18 08:46:11;;;;;;;5.13;3.03;;;;;;;23.74;47.71;101296.03;4993883;28;101527;-28
2023/06/18 08:48:45;;;;;;;6.40;3.33;;;;;;;23.76;47.64;101306.03;5011773;28;101261;-27
2023/06/18 08:51:11;;;;;;;5.93;3.60;;;;;;;23.74;48.01;101292.41;5016028;28;97181;-27
2023/06/18 08:53:48;;;;;;;5.38;3.35;;;;;;;23.79;47.93;101301.06;5007417;28;96588;-28
2023/06/18 08:56:15;;;;;;;5.90;3.78;;;;;;;23.85;47.61;101307.78;4994018;28;101323;-27
2023/06/18 08:58:49;;;;;;;7.97;3.80;;;;;;;23.80;47.43;101301.91;4994090;28;101079;-27
2023/06/18 09:01:14;;;;;;;8.10;4.93;;;;;;;23.85;47.75;101305.03;4995381;28;96546;-28
2023/06/18 09:03:41;;;;;;;4.85;3.35;;;;;;;23.95;47.66;101306.63;4996217;28;96749;-27
2023/06/18 09:06:07;;;;;;;6.35;3.38;;;;;;;23.97;48.02;101313.88;4993984;28;101475;-27
2023/06/18 09:08:33;;;;;;;7.78;3.40;;;;;;;23.92;48.37;101300.53;5003606;28;100768;-28
2023/06/18 09:11:00;;;;;;;5.40;3.25;;;;;;;23.93;48.30;101316.09;5015464;28;96599;-29
2023/06/18 09:13:25;;;;;;;6.80;4.13;;;;;;;23.85;48.02;101311.41;5013569;28;97402;-27
2023/06/18 09:15:53;;;;;;;7.93;3.78;;;;;;;23.80;48.27;101307.44;5015119;28;99476;-27
2023/06/18 09:18:21;;;;;;;7.00;3.75;;;;;;;23.78;49.33;101313.13;5013986;28;100949;-27
2023/06/18 09:20:47;;;;;;;6.20;3.88;;;;;;;23.75;49.13;101305.19;5003697;28;96829;-27
2023/06/18 09:23:12;;;;;;;6.22;3.65;;;;;;;23.76;48.94;101306.91;4995565;28;96792;-27
2023/06/18 09:25:38;;;;;;;5.70;3.50;;;;;;;23.67;49.74;101300.47;4994280;28;99170;-27
2023/06/18 09:28:04;;;;;;;5.30;3.50;;;;;;;23.69;49.01;101309.47;4994733;28;97938;-27
2023/06/18 09:30:29;;;;;;;6.88;3.55;;;;;;;23.77;48.88;101316.94;4994025;28;96761;-28
2023/06/18 09:32:57;;;;;;;4.90;3.25;;;;;;;23.79;48.92;101305.69;4995383;28;96822;-28
2023/06/18 09:35:23;;;;;;;4.78;2.95;;;;;;;23.77;48.77;101305.03;4994258;28;97954;-27
2023/06/18 09:37:49;;;;;;;6.45;2.80;;;;;;;23.69;49.11;101308.59;4993534;28;100864;-27
2023/06/18 09:40:18;;;;;;;4.40;2.78;;;;;;;23.73;49.02;101310.88;4995451;28;96636;-27
2023/06/18 09:42:45;;;;;;;5.68;2.95;;;;;;;23.76;49.28;101309.66;4995450;28;96817;-27
2023/06/18 09:45:11;;;;;;;5.97;2.80;;;;;;;23.74;49.82;101307.09;4993350;28;100996;-28
2023/06/18 09:47:43;;;;;;;4.50;2.88;;;;;;;23.74;50.08;101314.53;4993354;28;100879;-28
2023/06/18 09:50:10;;;;;;;7.00;2.72;;;;;;;23.79;50.05;101312.13;4993490;28;96619;-27
2023/06/18 09:52:44;;;;;;;5.18;2.90;;;;;;;23.78;49.88;101304.84;4993587;28;96829;-29
2023/06/18 09:55:29;;;;;;;6.20;2.88;;;;;;;23.85;50.42;101305.88;4992903;28;100979;-28
2023/06/18 09:57:55;;;;;;;3.65;2.35;;;;;;;23.84;49.96;101311.59;4993279;28;101597;-27
2023/06/18 10:00:21;;;;;;;4.15;2.60;;;;;;;23.80;49.73;101302.78;4994716;28;96616;-27
2023/06/18 10:02:46;;;;;;;4.60;2.88;;;;;;;23.80;49.98;101300.00;4993361;28;96886;-27
2023/06/18 10:05:12;;;;;;;3.90;2.45;;;;;;;23.81;50.21;101311.94;4995054;28;97412;-27
2023/06/18 10:07:40;;;;;;;3.92;2.35;;;;;;;23.69;50.62;101306.72;4994832;28;97196;-28
2023/06/18 10:10:14;;;;;;;4.07;2.35;;;;;;;23.72;50.33;101308.25;4993495;28;96682;-28
2023/06/18 10:12:44;;;;;;;3.58;2.20;;;;;;;23.64;50.99;101306.31;4995062;28;96648;-28
2023/06/18 10:15:13;;;;;;;3.60;2.47;;;;;;;23.66;50.32;101315.31;4992545;28;101258;-27
2023/06/18 10:17:45;;;;;;;5.18;2.38;;;;;;;23.67;50.17;101297.72;4994412;28;97813;-27
2023/06/18 10:20:12;;;;;;;;;;;;;;;23.72;51.11;101298.06;4995110;28;96599;-28
2023/06/18 10:22:54;;;;;;;3.45;2.13;;;;;;;23.67;50.79;101294.09;4994814;28;96767;-27
2023/06/18 10:25:21;;;;;;;5.18;2.15;;;;;;;23.63;50.77;101289.91;4995558;28;100911;-27
2023/06/18 10:27:48;;;;;;;4.20;1.98;;;;;;;23.67;50.95;101283.88;4997888;28;97368;-28
2023/06/18 10:30:15;;;;;;;3.00;2.17;;;;;;;23.76;50.94;101290.31;4996759;28;96619;-28
2023/06/18 10:32:43;;;;;;;4.72;2.72;;;;;;;23.75;51.15;101291.34;4997150;28;96911;-27
2023/06/18 10:35:11;;;;;;;4.10;2.38;;;;;;;23.83;50.72;101293.25;4995580;28;104104;-28
2023/06/18 10:37:38;;;;;;;6.82;2.67;;;;;;;23.95;50.49;101278.06;4996253;28;100859;-27
2023/06/18 10:40:05;;;;;;;4.70;2.72;;;;;;;24.02;50.64;101270.78;4997581;28;96555;-27
2023/06/18 10:42:32;;;;;;;4.03;2.55;;;;;;;24.06;51.06;101268.56;4996590;28;96882;-27
2023/06/18 10:45:07;;;;;;;4.68;2.83;;;;;;;24.18;50.44;101267.16;4995932;28;101438;-27
2023/06/18 10:47:33;;;;;;;3.38;2.28;;;;;;;24.23;50.45;101263.88;4996230;28;100983;-27
2023/06/18 10:50:07;;;;;;;4.47;2.50;;;;;;;24.21;50.77;101266.81;4997980;28;96665;-27
2023/06/18 10:52:37;;;;;;;5.32;2.90;;;;;;;24.25;50.20;101257.13;4997897;28;96678;-28
2023/06/18 10:55:26;;;;;;;4.05;2.63;;;;;;;24.31;50.42;101255.56;4996119;28;100979;-27
2023/06/18 10:58:04;;;;;;;4.63;2.65;;;;;;;24.35;50.77;101252.25;4996388;28;99236;-27
2023/06/18 11:00:39;;;;;;;5.63;2.90;;;;;;;24.49;50.83;101256.25;4996238;28;96579;-27
2023/06/18 11:03:11;;;;;;;4.10;2.90;;;;;;;24.46;50.16;101250.19;4996315;28;96872;-27
2023/06/18 11:05:40;;;;;;;4.97;2.88;;;;;;;24.53;50.01;101252.13;4995536;28;100829;-27
2023/06/18 11:08:09;;;;;;;5.55;2.63;;;;;;;24.36;49.72;101239.31;4996853;28;99322;-28
2023/06/18 11:10:36;;;;;;;4.60;2.80;;;;;;;24.44;50.14;101255.03;4996155;28;96690;-27
2023/06/18 11:13:03;;;;;;;4.30;2.58;;;;;;;24.44;49.71;101238.44;4996140;28;96938;-27
2023/06/18 11:15:29;;;;;;;5.28;2.97;;;;;;;24.49;49.61;101245.19;4997087;28;98055;-27
2023/06/18 11:17:55;;;;;;;4.22;2.65;;;;;;;24.56;49.90;101242.59;4996897;28;107655;-29
2023/06/18 11:20:23;;;;;;;5.72;3.15;;;;;;;24.48;49.70;101234.28;4995849;28;96843;-30
2023/06/18 11:22:55;;;;;;;4.75;2.95;;;;;;;24.45;50.60;101235.47;4979738;28;96910;-28